createdAt,value
2023-10-02T00:01:08.570Z,13.50
2023-10-02T00:03:43.101Z,13.50
2023-10-02T00:06:13.474Z,13.50
2023-10-02T00:08:43.227Z,13.40
2023-10-02T00:11:36.139Z,13.30
2023-10-02T00:14:19.929Z,13.40
2023-10-02T00:17:01.204Z,13.70
2023-10-02T00:19:32.505Z,13.80
2023-10-02T00:22:09.784Z,13.80
2023-10-02T00:24:42.160Z,13.90
2023-10-02T00:27:11.806Z,14.00
2023-10-02T00:29:59.382Z,14.00
2023-10-02T00:32:31.022Z,14.00
2023-10-02T00:35:02.488Z,14.00
2023-10-02T00:37:55.061Z,13.80
2023-10-02T00:40:30.429Z,13.80
2023-10-02T00:43:01.340Z,13.90
2023-10-02T00:45:43.956Z,13.90
2023-10-02T00:48:27.197Z,14.10
2023-10-02T00:51:00.395Z,14.00
2023-10-02T00:53:47.459Z,13.90
2023-10-02T00:56:29.913Z,13.90
2023-10-02T00:59:03.468Z,13.80
2023-10-02T01:01:33.839Z,13.70
2023-10-02T01:04:25.877Z,13.80
2023-10-02T01:07:06.632Z,13.80
2023-10-02T01:09:35.738Z,13.90
2023-10-02T01:12:03.877Z,14.00
2023-10-02T01:14:50.444Z,14.10
2023-10-02T01:17:19.164Z,14.20
2023-10-02T01:19:57.951Z,14.30
2023-10-02T01:22:31.742Z,14.30
2023-10-02T01:25:15.523Z,14.50
2023-10-02T01:27:50.224Z,14.50
2023-10-02T01:30:24.678Z,14.60
2023-10-02T01:33:13.804Z,14.70
2023-10-02T01:35:51.546Z,14.70
2023-10-02T01:38:35.530Z,14.70
2023-10-02T01:41:09.755Z,14.50
2023-10-02T01:43:46.146Z,14.30
2023-10-02T01:46:20.278Z,14.20
2023-10-02T01:48:52.339Z,14.20
2023-10-02T01:51:23.258Z,14.10
2023-10-02T01:53:52.757Z,13.90
2023-10-02T01:56:22.022Z,13.80
2023-10-02T01:58:50.308Z,13.70
2023-10-02T02:01:22.152Z,13.70
2023-10-02T02:03:52.759Z,13.80
2023-10-02T02:06:23.765Z,13.90
2023-10-02T02:09:02.813Z,14.00
2023-10-02T02:11:31.466Z,14.00
2023-10-02T02:14:05.729Z,13.90
2023-10-02T02:16:36.436Z,13.80
2023-10-02T02:19:08.098Z,13.70
2023-10-02T02:21:36.570Z,13.70
2023-10-02T02:24:10.357Z,13.70
2023-10-02T02:26:41.066Z,13.80
2023-10-02T02:29:28.324Z,13.90
2023-10-02T02:31:56.466Z,14.00
2023-10-02T02:34:28.056Z,14.10
2023-10-02T02:36:55.898Z,14.30
2023-10-02T02:39:24.963Z,14.40
2023-10-02T02:42:11.276Z,14.40
2023-10-02T02:44:47.906Z,14.50
2023-10-02T02:47:18.374Z,14.40
2023-10-02T02:50:09.487Z,14.50
2023-10-02T02:52:37.132Z,14.50
2023-10-02T02:55:16.477Z,14.50
2023-10-02T02:57:47.129Z,14.50
2023-10-02T03:00:34.339Z,14.50
2023-10-02T03:03:03.862Z,14.50
2023-10-02T03:05:39.907Z,14.50
2023-10-02T03:08:07.750Z,14.50
2023-10-02T03:10:38.572Z,14.40
2023-10-02T03:13:10.012Z,14.40
2023-10-02T03:15:50.679Z,14.40
2023-10-02T03:18:32.656Z,14.40
2023-10-02T03:21:22.861Z,14.30
2023-10-02T03:24:01.552Z,14.30
2023-10-02T03:26:32.282Z,14.20
2023-10-02T03:29:04.420Z,14.20
2023-10-02T03:31:54.032Z,14.20
2023-10-02T03:34:29.812Z,14.30
2023-10-02T03:37:29.978Z,14.40
2023-10-02T03:40:00.585Z,14.50
2023-10-02T03:42:33.363Z,14.60
2023-10-02T03:45:06.834Z,14.70
2023-10-02T03:47:38.872Z,14.60
2023-10-02T03:50:14.397Z,14.50
2023-10-02T03:52:47.311Z,14.40
2023-10-02T03:55:17.741Z,14.50
2023-10-02T03:57:50.993Z,14.40
2023-10-02T04:00:20.876Z,14.40
2023-10-02T04:02:58.709Z,14.40
2023-10-02T04:05:45.824Z,14.30
2023-10-02T04:08:24.258Z,14.20
2023-10-02T04:10:58.507Z,14.20
2023-10-02T04:13:40.471Z,14.20
2023-10-02T04:16:27.120Z,14.10
2023-10-02T04:19:02.314Z,14.00
2023-10-02T04:21:35.004Z,14.00
2023-10-02T04:24:06.815Z,14.10
2023-10-02T04:26:35.167Z,14.10
2023-10-02T04:29:16.025Z,14.10
2023-10-02T04:31:46.860Z,14.40
2023-10-02T04:34:33.008Z,14.60
2023-10-02T04:37:04.846Z,14.70
2023-10-02T04:39:32.519Z,14.60
2023-10-02T04:42:17.197Z,14.50
2023-10-02T04:44:48.749Z,14.40
2023-10-02T04:47:19.559Z,14.40
2023-10-02T04:50:05.133Z,14.50
2023-10-02T04:53:02.590Z,14.50
2023-10-02T04:55:33.659Z,14.50
2023-10-02T04:58:10.898Z,14.40
2023-10-02T05:01:02.947Z,14.40
2023-10-02T05:03:31.821Z,14.30
2023-10-02T05:06:00.884Z,14.20
2023-10-02T05:08:37.477Z,14.10
2023-10-02T05:11:09.709Z,14.10
2023-10-02T05:14:01.262Z,14.10
2023-10-02T05:16:40.657Z,14.10
2023-10-02T05:19:09.891Z,14.10
2023-10-02T05:21:51.321Z,14.10
2023-10-02T05:24:20.823Z,14.10
2023-10-02T05:26:48.970Z,14.10
2023-10-02T05:29:19.841Z,14.20
2023-10-02T05:31:50.012Z,14.20
2023-10-02T05:34:26.450Z,14.20
2023-10-02T05:37:14.391Z,14.30
2023-10-02T05:39:42.566Z,14.50
2023-10-02T05:42:17.332Z,14.50
2023-10-02T05:44:46.086Z,14.70
2023-10-02T05:47:18.227Z,14.90
2023-10-02T05:49:50.132Z,15.00
2023-10-02T05:52:20.357Z,15.10
2023-10-02T05:54:55.166Z,15.10
2023-10-02T05:57:33.671Z,15.10
2023-10-02T06:00:02.131Z,15.10
2023-10-02T06:02:29.919Z,15.00
2023-10-02T06:05:09.656Z,15.00
2023-10-02T06:07:47.740Z,15.10
2023-10-02T06:10:28.459Z,15.10
2023-10-02T06:13:07.441Z,15.20
2023-10-02T06:15:45.483Z,15.30
2023-10-02T06:18:26.170Z,15.40
2023-10-02T06:21:04.841Z,15.50
2023-10-02T06:23:40.016Z,15.30
2023-10-02T06:26:11.623Z,15.30
2023-10-02T06:28:40.872Z,15.50
2023-10-02T06:31:09.608Z,15.60
2023-10-02T06:33:38.608Z,15.60
2023-10-02T06:36:10.304Z,15.50
2023-10-02T06:38:38.142Z,15.40
2023-10-02T06:41:11.083Z,15.40
2023-10-02T06:43:39.203Z,15.40
2023-10-02T06:46:11.273Z,15.50
2023-10-02T06:48:45.527Z,15.80
2023-10-02T06:51:17.671Z,16.10
2023-10-02T06:53:45.333Z,16.50
2023-10-02T06:56:14.943Z,16.80
2023-10-02T06:58:57.842Z,16.80
2023-10-02T07:01:29.677Z,16.70
2023-10-02T07:03:58.621Z,16.70
2023-10-02T07:06:27.360Z,16.60
2023-10-02T07:09:14.145Z,16.70
2023-10-02T07:11:46.811Z,16.80
2023-10-02T07:14:16.372Z,16.90
2023-10-02T07:16:44.826Z,17.20
2023-10-02T07:19:12.994Z,17.30
2023-10-02T07:21:43.200Z,17.30
2023-10-02T07:27:25.829Z,17.60
2023-10-02T07:29:56.061Z,17.70
2023-10-02T07:32:30.600Z,17.70
2023-10-02T07:35:11.299Z,17.60
2023-10-02T07:37:39.943Z,17.90
2023-10-02T07:40:08.089Z,18.00
2023-10-02T07:42:40.715Z,18.00
2023-10-02T07:45:35.649Z,18.10
2023-10-02T07:48:21.020Z,18.20
2023-10-02T07:50:48.746Z,18.30
2023-10-02T07:53:16.605Z,18.30
2023-10-02T07:55:48.557Z,18.30
2023-10-02T07:58:21.349Z,18.30
2023-10-02T08:00:51.932Z,18.50
2023-10-02T08:03:37.909Z,18.70
2023-10-02T08:06:29.436Z,18.80
2023-10-02T08:09:16.598Z,19.00
2023-10-02T08:11:56.360Z,19.00
2023-10-02T08:14:44.392Z,19.00
2023-10-02T08:17:27.334Z,19.10
2023-10-02T08:20:29.870Z,19.30
2023-10-02T08:22:58.790Z,19.50
2023-10-02T08:25:26.904Z,19.70
2023-10-02T08:27:58.063Z,20.00
2023-10-02T08:30:30.407Z,20.20
2023-10-02T08:33:27.626Z,20.20
2023-10-02T08:36:02.813Z,20.20
2023-10-02T08:38:30.638Z,20.20
2023-10-02T08:41:05.162Z,20.30
2023-10-02T08:43:34.300Z,20.40
2023-10-02T08:46:04.442Z,20.20
2023-10-02T08:48:36.022Z,20.30
2023-10-02T08:51:05.426Z,20.40
2023-10-02T08:53:34.793Z,20.50
2023-10-02T08:56:02.907Z,20.50
2023-10-02T08:58:30.929Z,20.60
2023-10-02T09:01:10.524Z,20.80
2023-10-02T09:03:43.904Z,20.70
2023-10-02T09:06:32.313Z,20.90
2023-10-02T09:09:16.282Z,21.10
2023-10-02T09:11:45.953Z,21.10
2023-10-02T09:14:25.000Z,21.20
2023-10-02T09:17:14.037Z,21.40
2023-10-02T09:19:50.730Z,21.40
2023-10-02T09:22:19.925Z,21.50
2023-10-02T09:25:10.886Z,21.60
2023-10-02T09:27:56.018Z,21.60
2023-10-02T09:30:38.798Z,21.40
2023-10-02T09:33:55.086Z,21.40
2023-10-02T09:37:17.187Z,21.50
2023-10-02T09:39:40.607Z,21.90
2023-10-02T09:42:08.856Z,21.90
2023-10-02T09:44:47.586Z,22.10
2023-10-02T09:47:27.400Z,22.30
2023-10-02T09:50:13.485Z,22.40
2023-10-02T09:53:11.597Z,22.40
2023-10-02T09:56:10.254Z,22.40
2023-10-02T09:58:53.942Z,22.80
2023-10-02T10:01:35.951Z,23.00
2023-10-02T10:04:24.073Z,23.00
2023-10-02T10:07:11.993Z,23.00
2023-10-02T10:09:52.386Z,23.20
2023-10-02T10:12:33.547Z,23.20
2023-10-02T10:15:33.368Z,23.10
2023-10-02T10:18:04.742Z,23.50
2023-10-02T10:20:32.540Z,23.80
2023-10-02T10:23:32.764Z,24.10
2023-10-02T10:26:09.319Z,24.20
2023-10-02T10:28:52.727Z,24.40
2023-10-02T10:31:31.293Z,24.60
2023-10-02T10:34:01.396Z,24.70
2023-10-02T10:36:41.183Z,25.00
2023-10-02T10:40:00.933Z,24.80
2023-10-02T10:42:29.020Z,24.40
2023-10-02T10:44:59.148Z,23.90
2023-10-02T10:47:40.249Z,23.70
2023-10-02T10:50:15.587Z,24.30
2023-10-02T10:52:46.178Z,24.40
2023-10-02T10:55:40.818Z,24.40
2023-10-02T10:58:12.767Z,24.10
2023-10-02T11:00:43.744Z,24.40
2023-10-02T11:03:21.646Z,24.40
2023-10-02T11:05:49.677Z,25.00
2023-10-02T11:08:30.131Z,24.90
2023-10-02T11:11:22.242Z,24.90
2023-10-02T11:13:57.079Z,24.70
2023-10-02T11:16:36.989Z,24.00
2023-10-02T11:19:21.951Z,23.90
2023-10-02T11:22:17.086Z,23.80
2023-10-02T11:24:54.968Z,24.40
2023-10-02T11:27:26.537Z,25.00
2023-10-02T11:30:04.804Z,24.90
2023-10-02T11:33:00.614Z,24.60
2023-10-02T11:35:31.810Z,25.00
2023-10-02T11:38:00.891Z,25.70
2023-10-02T11:40:30.240Z,25.50
2023-10-02T11:43:01.594Z,26.00
2023-10-02T11:45:34.274Z,26.40
2023-10-02T11:48:02.187Z,26.00
2023-10-02T11:50:30.066Z,25.50
2023-10-02T11:52:58.160Z,25.30
2023-10-02T11:55:26.113Z,26.00
2023-10-02T11:57:53.812Z,26.90
2023-10-02T12:00:23.224Z,27.70
2023-10-02T12:02:51.317Z,28.10
2023-10-02T12:05:20.527Z,28.30
2023-10-02T12:07:48.554Z,28.30
2023-10-02T12:10:17.479Z,27.30
2023-10-02T12:12:48.953Z,28.00
2023-10-02T12:15:17.917Z,27.70
2023-10-02T12:17:46.098Z,27.20
2023-10-02T12:20:20.618Z,27.00
2023-10-02T12:22:48.940Z,26.80
2023-10-02T12:25:17.362Z,27.10
2023-10-02T12:27:45.633Z,26.90
2023-10-02T12:30:14.042Z,26.80
2023-10-02T12:32:42.262Z,26.90
2023-10-02T12:35:11.091Z,27.10
2023-10-02T12:37:39.070Z,27.20
2023-10-02T12:40:20.248Z,26.60
2023-10-02T12:42:48.093Z,26.40
2023-10-02T12:45:15.861Z,26.50
2023-10-02T12:47:44.970Z,26.20
2023-10-02T12:50:13.411Z,26.40
2023-10-02T12:52:41.413Z,26.50
2023-10-02T12:55:09.841Z,26.90
2023-10-02T12:57:40.737Z,27.70
2023-10-02T13:00:18.893Z,27.70
2023-10-02T13:02:47.199Z,28.20
2023-10-02T13:05:15.298Z,28.10
2023-10-02T13:07:44.315Z,27.80
2023-10-02T13:10:12.235Z,27.90
2023-10-02T13:12:40.220Z,27.90
2023-10-02T13:15:09.358Z,27.20
2023-10-02T13:17:37.043Z,27.00
2023-10-02T13:20:09.348Z,27.00
2023-10-02T13:22:39.849Z,26.80
2023-10-02T13:25:13.515Z,27.40
2023-10-02T13:27:42.303Z,27.90
2023-10-02T13:30:13.546Z,27.80
2023-10-02T13:32:42.023Z,28.40
2023-10-02T13:35:11.266Z,28.80
2023-10-02T13:37:40.286Z,28.30
2023-10-02T13:40:21.374Z,27.70
2023-10-02T13:42:50.902Z,27.10
2023-10-02T13:45:25.230Z,26.50
2023-10-02T13:47:56.450Z,25.60
2023-10-02T13:50:24.318Z,25.30
2023-10-02T13:52:54.599Z,25.00
2023-10-02T13:55:25.110Z,24.70
2023-10-02T13:57:53.904Z,24.70
2023-10-02T14:00:26.723Z,25.00
2023-10-02T14:02:58.224Z,25.20
2023-10-02T14:05:31.139Z,25.40
2023-10-02T14:07:59.109Z,25.40
2023-10-02T14:10:28.099Z,25.00
2023-10-02T14:12:55.845Z,24.60
2023-10-02T14:15:23.524Z,24.40
2023-10-02T14:17:51.993Z,24.40
2023-10-02T14:20:19.962Z,24.40
2023-10-02T14:22:48.551Z,24.60
2023-10-02T14:25:25.315Z,24.30
2023-10-02T14:27:54.493Z,24.20
2023-10-02T14:30:24.582Z,24.10
2023-10-02T14:32:54.377Z,24.10
2023-10-02T14:35:22.416Z,24.20
2023-10-02T14:37:50.385Z,24.30
2023-10-02T14:40:34.860Z,24.30
2023-10-02T14:43:05.368Z,24.40
2023-10-02T14:45:35.689Z,24.30
2023-10-02T14:48:03.701Z,24.30
2023-10-02T14:50:36.189Z,24.40
2023-10-02T14:53:04.280Z,24.60
2023-10-02T14:55:32.822Z,25.00
2023-10-02T14:58:02.097Z,25.50
2023-10-02T15:00:29.887Z,25.50
2023-10-02T15:02:58.342Z,25.30
2023-10-02T15:05:27.369Z,25.30
2023-10-02T15:07:57.498Z,25.20
2023-10-02T15:10:33.572Z,24.80
2023-10-02T15:13:01.713Z,24.80
2023-10-02T15:15:32.551Z,24.80
2023-10-02T15:18:01.177Z,24.90
2023-10-02T15:20:30.020Z,25.20
2023-10-02T15:22:59.022Z,25.10
2023-10-02T15:25:31.802Z,24.90
2023-10-02T15:28:03.051Z,25.00
2023-10-02T15:30:32.477Z,25.00
2023-10-02T15:33:00.480Z,25.00
2023-10-02T15:35:28.796Z,24.90
2023-10-02T15:37:56.798Z,24.70
2023-10-02T15:40:25.648Z,24.70
2023-10-02T15:42:54.988Z,24.80
2023-10-02T15:45:26.122Z,25.00
2023-10-02T15:47:56.837Z,25.10
2023-10-02T15:50:28.319Z,25.00
2023-10-02T15:52:59.264Z,24.80
2023-10-02T15:55:28.097Z,24.60
2023-10-02T15:57:55.911Z,24.30
2023-10-02T16:00:25.955Z,24.00
2023-10-02T16:02:56.241Z,23.50
2023-10-02T16:05:26.228Z,23.20
2023-10-02T16:07:54.352Z,22.80
2023-10-02T16:10:25.468Z,22.50
2023-10-02T16:12:54.352Z,22.10
2023-10-02T16:15:26.126Z,21.80
2023-10-02T16:18:00.348Z,21.60
2023-10-02T16:20:31.047Z,21.30
2023-10-02T16:22:59.868Z,21.00
2023-10-02T16:25:31.356Z,20.70
2023-10-02T16:27:59.782Z,20.40
2023-10-02T16:30:28.080Z,20.20
2023-10-02T16:32:57.084Z,20.00
2023-10-02T16:35:32.124Z,19.90
2023-10-02T16:38:03.873Z,19.70
2023-10-02T16:40:35.313Z,19.60
2023-10-02T16:43:06.816Z,19.50
2023-10-02T16:45:35.833Z,19.40
2023-10-02T16:48:04.944Z,19.30
2023-10-02T16:50:33.021Z,19.20
2023-10-02T16:53:00.877Z,19.10
2023-10-02T16:55:29.244Z,18.90
2023-10-02T16:57:57.910Z,18.80
2023-10-02T17:00:27.040Z,18.70
2023-10-02T17:02:57.795Z,18.50
2023-10-02T17:05:26.297Z,18.40
2023-10-02T17:07:55.783Z,18.20
2023-10-02T17:10:25.219Z,18.10
2023-10-02T17:12:58.712Z,17.90
2023-10-02T17:15:30.124Z,17.80
2023-10-02T17:17:59.610Z,17.70
2023-10-02T17:20:27.734Z,17.60
2023-10-02T17:22:56.631Z,17.30
2023-10-02T17:25:28.019Z,17.10
2023-10-02T17:28:00.053Z,16.80
2023-10-02T17:30:28.639Z,16.80
2023-10-02T17:32:59.522Z,16.90
2023-10-02T17:35:27.632Z,16.80
2023-10-02T17:37:55.878Z,16.90
2023-10-02T17:40:25.810Z,16.90
2023-10-02T17:42:56.462Z,16.80
2023-10-02T17:45:24.338Z,16.60
2023-10-02T17:47:52.932Z,16.60
2023-10-02T17:50:21.714Z,16.60
2023-10-02T17:52:50.843Z,16.60
2023-10-02T17:55:18.711Z,16.60
2023-10-02T17:57:48.643Z,16.50
2023-10-02T18:00:19.873Z,16.40
2023-10-02T18:02:48.220Z,16.20
2023-10-02T18:05:17.094Z,16.10
2023-10-02T18:07:46.540Z,16.00
2023-10-02T18:10:16.743Z,15.90
2023-10-02T18:12:44.975Z,15.70
2023-10-02T18:15:15.831Z,15.60
2023-10-02T18:17:43.955Z,15.60
2023-10-02T18:20:14.291Z,15.60
2023-10-02T18:22:42.540Z,15.60
2023-10-02T18:25:10.426Z,15.50
2023-10-02T18:27:38.697Z,15.40
2023-10-02T18:30:10.551Z,15.40
2023-10-02T18:32:41.843Z,15.30
2023-10-02T18:35:11.025Z,15.20
2023-10-02T18:37:38.964Z,15.20
2023-10-02T18:40:12.083Z,15.10
2023-10-02T18:42:39.961Z,15.00
2023-10-02T18:45:08.553Z,15.00
2023-10-02T18:47:36.566Z,15.00
2023-10-02T18:50:05.927Z,14.90
2023-10-02T18:52:36.003Z,14.90
2023-10-02T18:55:04.443Z,14.80
2023-10-02T18:57:32.068Z,14.70
2023-10-02T18:59:59.736Z,14.70
2023-10-02T19:02:30.578Z,14.70
2023-10-02T19:05:00.360Z,14.70
2023-10-02T19:07:28.056Z,14.60
2023-10-02T19:09:55.726Z,14.60
2023-10-02T19:12:23.592Z,14.50
2023-10-02T19:14:51.591Z,14.50
2023-10-02T19:17:23.677Z,14.50
2023-10-02T19:19:53.630Z,14.50
2023-10-02T19:22:21.295Z,14.40
2023-10-02T19:24:49.136Z,14.40
2023-10-02T19:27:18.243Z,14.40
2023-10-02T19:29:46.656Z,14.40
2023-10-02T19:32:15.891Z,14.30
2023-10-02T19:34:43.713Z,14.20
2023-10-02T19:37:11.424Z,14.20
2023-10-02T19:39:39.991Z,14.20
2023-10-02T19:42:07.677Z,14.20
2023-10-02T19:44:35.385Z,14.20
2023-10-02T19:47:03.264Z,14.20
2023-10-02T19:49:30.864Z,14.20
2023-10-02T19:52:00.408Z,14.10
2023-10-02T19:54:28.323Z,14.10
2023-10-02T19:56:56.050Z,14.10
2023-10-02T19:59:23.761Z,14.20
2023-10-02T20:01:51.685Z,14.10
2023-10-02T20:04:22.260Z,14.10
2023-10-02T20:06:49.962Z,14.10
2023-10-02T20:09:18.100Z,14.00
2023-10-02T20:11:45.976Z,13.90
2023-10-02T20:14:13.877Z,13.90
2023-10-02T20:16:44.967Z,13.90
2023-10-02T20:19:13.923Z,13.80
2023-10-02T20:21:44.072Z,13.70
2023-10-02T20:24:12.087Z,13.70
2023-10-02T20:26:40.338Z,13.70
2023-10-02T20:29:09.432Z,13.60
2023-10-02T20:31:37.104Z,13.60
2023-10-02T20:34:05.499Z,13.60
2023-10-02T20:36:34.242Z,13.60
2023-10-02T20:39:02.147Z,13.60
2023-10-02T20:41:30.629Z,13.70
2023-10-02T20:43:58.324Z,13.70
2023-10-02T20:46:27.187Z,13.60
2023-10-02T20:48:54.897Z,13.60
2023-10-02T20:51:22.501Z,13.60
2023-10-02T20:53:50.175Z,13.60
2023-10-02T20:56:18.642Z,13.50
2023-10-02T20:58:46.257Z,13.50
2023-10-02T21:01:14.836Z,13.50
2023-10-02T21:03:42.484Z,13.50
2023-10-02T21:06:10.345Z,13.40
2023-10-02T21:08:38.067Z,13.40
2023-10-02T21:11:05.747Z,13.30
2023-10-02T21:13:33.385Z,13.30
2023-10-02T21:16:01.098Z,13.20
2023-10-02T21:18:31.906Z,13.30
2023-10-02T21:20:59.764Z,13.30
2023-10-02T21:23:29.172Z,13.30
2023-10-02T21:25:56.778Z,13.40
2023-10-02T21:28:24.466Z,13.40
2023-10-02T21:30:52.405Z,13.30
2023-10-02T21:33:20.130Z,13.30
2023-10-02T21:35:50.063Z,13.20
2023-10-02T21:38:18.597Z,13.20
2023-10-02T21:40:46.230Z,13.20
2023-10-02T21:43:14.010Z,13.30
2023-10-02T21:45:41.716Z,13.30
2023-10-02T21:48:09.420Z,13.30
2023-10-02T21:50:37.155Z,13.40
2023-10-02T21:53:06.174Z,13.40
2023-10-02T21:55:37.093Z,13.40
2023-10-02T21:58:05.176Z,13.40
2023-10-02T22:01:02.376Z,13.40
2023-10-02T22:03:30.672Z,13.40
2023-10-02T22:05:58.387Z,13.50
2023-10-02T22:08:25.998Z,13.60
2023-10-02T22:10:54.136Z,13.60
2023-10-02T22:13:22.014Z,13.60
2023-10-02T22:15:51.249Z,13.70
2023-10-02T22:18:20.289Z,13.70
2023-10-02T22:20:50.002Z,13.70
2023-10-02T22:23:19.246Z,13.70
2023-10-02T22:25:47.218Z,13.70
2023-10-02T22:28:15.899Z,13.70
2023-10-02T22:30:43.938Z,13.70
2023-10-02T22:33:13.453Z,13.60
2023-10-02T22:35:42.846Z,13.50
2023-10-02T22:38:11.756Z,13.50
2023-10-02T22:40:39.576Z,13.40
2023-10-02T22:43:07.523Z,13.50
2023-10-02T22:45:38.112Z,13.50
2023-10-02T22:48:09.682Z,13.50
2023-10-02T22:50:40.382Z,13.50
2023-10-02T22:53:09.631Z,13.50
2023-10-02T22:55:40.461Z,13.40
2023-10-02T22:58:08.187Z,13.40
2023-10-02T23:00:37.457Z,13.30
2023-10-02T23:03:07.019Z,13.30
2023-10-02T23:05:34.732Z,13.20
2023-10-02T23:08:02.403Z,13.30
2023-10-02T23:10:30.908Z,13.20
2023-10-02T23:12:59.809Z,13.30
2023-10-02T23:15:27.605Z,13.20
2023-10-02T23:17:58.363Z,13.30
2023-10-02T23:20:26.347Z,13.20
2023-10-02T23:22:54.380Z,13.20
2023-10-02T23:25:28.243Z,13.20
2023-10-02T23:27:56.156Z,13.10
2023-10-02T23:30:24.357Z,13.20
2023-10-02T23:32:57.635Z,13.20
2023-10-02T23:35:26.422Z,13.10
2023-10-02T23:37:57.860Z,13.10
2023-10-02T23:40:26.051Z,13.00
2023-10-02T23:43:00.363Z,13.00
2023-10-02T23:45:29.196Z,13.00
2023-10-02T23:48:02.313Z,12.90
2023-10-02T23:50:44.420Z,12.90
2023-10-02T23:53:15.673Z,12.90
2023-10-02T23:55:43.867Z,12.80
2023-10-02T23:58:13.106Z,12.80
